createdAt,value
2023-03-26T00:01:02.986Z,96738.69
2023-03-26T00:03:32.503Z,96743.00
2023-03-26T00:06:04.533Z,96745.78
2023-03-26T00:08:32.406Z,96735.31
2023-03-26T00:11:01.288Z,96739.81
2023-03-26T00:13:30.823Z,96737.41
2023-03-26T00:15:58.643Z,96749.72
2023-03-26T00:18:30.819Z,96747.28
2023-03-26T00:20:59.229Z,96750.09
2023-03-26T00:23:28.333Z,96759.25
2023-03-26T00:25:57.251Z,96754.13
2023-03-26T00:28:26.377Z,96763.34
2023-03-26T00:31:00.612Z,96753.38
2023-03-26T00:33:28.746Z,96758.97
2023-03-26T00:36:03.205Z,96761.31
2023-03-26T00:38:32.424Z,96753.06
2023-03-26T00:41:05.979Z,96753.41
2023-03-26T00:43:35.270Z,96744.63
2023-03-26T00:46:05.083Z,96727.97
2023-03-26T00:48:44.554Z,96750.09
2023-03-26T00:51:15.948Z,96746.81
2023-03-26T00:53:44.517Z,96747.75
2023-03-26T00:56:13.009Z,96737.38
2023-03-26T00:58:41.247Z,96733.94
2023-03-26T01:01:14.404Z,96725.16
2023-03-26T01:03:53.183Z,96725.44
2023-03-26T01:06:27.938Z,96722.00
2023-03-26T01:09:00.511Z,96730.75
2023-03-26T01:11:31.930Z,96718.63
2023-03-26T01:14:02.413Z,96704.63
2023-03-26T01:16:37.233Z,96703.72
2023-03-26T01:19:10.316Z,96711.53
2023-03-26T01:21:39.691Z,96707.16
2023-03-26T01:24:12.025Z,96702.03
2023-03-26T01:27:01.530Z,96698.84
2023-03-26T01:29:34.035Z,96700.06
2023-03-26T01:32:10.574Z,96693.38
2023-03-26T01:34:49.826Z,96680.81
2023-03-26T01:37:23.175Z,96690.41
2023-03-26T01:39:57.395Z,96685.34
2023-03-26T01:42:32.935Z,96682.19
2023-03-26T01:45:05.235Z,96683.03
2023-03-26T01:47:33.700Z,96683.88
2023-03-26T01:50:01.867Z,96681.25
2023-03-26T01:52:29.775Z,96672.47
2023-03-26T01:54:59.760Z,96672.22
2023-03-26T01:57:35.920Z,96668.69
2023-03-26T02:00:21.054Z,96660.72
2023-03-26T02:03:00.944Z,96660.00
2023-03-26T02:05:32.626Z,96655.44
2023-03-26T02:08:05.455Z,96654.34
2023-03-26T02:10:38.273Z,96652.56
2023-03-26T02:13:06.801Z,96651.59
2023-03-26T02:15:38.402Z,96654.34
2023-03-26T02:18:07.174Z,96632.97
2023-03-26T02:20:35.009Z,96636.31
2023-03-26T02:23:02.848Z,96634.63
2023-03-26T02:25:30.773Z,96631.06
2023-03-26T02:27:59.952Z,96625.50
2023-03-26T02:30:29.754Z,96616.72
2023-03-26T02:32:59.230Z,96617.66
2023-03-26T02:35:27.877Z,96628.00
2023-03-26T02:37:56.015Z,96628.50
2023-03-26T02:40:25.159Z,96625.63
2023-03-26T02:42:53.126Z,96621.25
2023-03-26T02:45:22.654Z,96623.25
2023-03-26T02:47:51.206Z,96614.88
2023-03-26T02:50:19.359Z,96611.25
2023-03-26T02:52:49.886Z,96617.31
2023-03-26T02:55:17.977Z,96611.88
2023-03-26T02:57:46.062Z,96607.44
2023-03-26T03:00:17.172Z,96604.97
2023-03-26T03:02:48.157Z,96582.22
2023-03-26T03:05:18.114Z,96585.38
2023-03-26T03:07:46.690Z,96585.59
2023-03-26T03:10:15.702Z,96573.84
2023-03-26T03:12:43.733Z,96576.25
2023-03-26T03:15:15.584Z,96568.41
2023-03-26T03:17:43.715Z,96571.78
2023-03-26T03:20:13.524Z,96566.38
2023-03-26T03:22:42.028Z,96561.16
2023-03-26T03:25:14.292Z,96571.22
2023-03-26T03:27:43.006Z,96563.47
2023-03-26T03:30:13.569Z,96559.19
2023-03-26T03:32:41.774Z,96553.88
2023-03-26T03:35:10.324Z,96546.97
2023-03-26T03:37:39.619Z,96543.44
2023-03-26T03:40:10.954Z,96548.66
2023-03-26T03:42:39.223Z,96543.59
2023-03-26T03:45:08.351Z,96543.44
2023-03-26T03:47:36.292Z,96549.41
2023-03-26T03:50:04.617Z,96547.72
2023-03-26T03:52:32.918Z,96543.13
2023-03-26T03:55:02.347Z,96537.81
2023-03-26T03:57:32.136Z,96524.59
2023-03-26T04:00:00.195Z,96526.84
2023-03-26T04:02:34.688Z,96527.56
2023-03-26T04:05:03.121Z,96521.31
2023-03-26T04:07:32.238Z,96525.69
2023-03-26T04:10:02.910Z,96519.53
2023-03-26T04:12:32.621Z,96511.88
2023-03-26T04:15:01.004Z,96495.38
2023-03-26T04:17:30.430Z,96497.91
2023-03-26T04:19:58.704Z,96495.19
2023-03-26T04:22:36.447Z,96481.28
2023-03-26T04:25:05.458Z,96468.25
2023-03-26T04:27:36.826Z,96479.53
2023-03-26T04:30:07.041Z,96475.16
2023-03-26T04:32:35.590Z,96464.69
2023-03-26T04:35:05.393Z,96471.59
2023-03-26T04:37:35.067Z,96463.00
2023-03-26T04:40:09.550Z,96454.25
2023-03-26T04:42:41.756Z,96447.34
2023-03-26T04:45:11.278Z,96436.81
2023-03-26T04:47:39.656Z,96435.03
2023-03-26T04:50:09.320Z,96422.06
2023-03-26T04:52:37.402Z,96428.03
2023-03-26T04:55:06.965Z,96413.28
2023-03-26T04:57:37.146Z,96406.31
2023-03-26T05:00:15.529Z,96397.63
2023-03-26T05:02:43.797Z,96406.38
2023-03-26T05:05:11.949Z,96395.31
2023-03-26T05:07:39.794Z,96383.38
2023-03-26T05:10:08.673Z,96372.31
2023-03-26T05:12:36.453Z,96368.63
2023-03-26T05:15:04.693Z,96368.53
2023-03-26T05:17:41.473Z,96363.22
2023-03-26T05:20:17.403Z,96353.53
2023-03-26T05:22:45.698Z,96332.47
2023-03-26T05:25:13.621Z,96350.63
2023-03-26T05:27:41.477Z,96350.78
2023-03-26T05:30:10.150Z,96349.13
2023-03-26T05:32:39.395Z,96347.47
2023-03-26T05:35:08.689Z,96341.50
2023-03-26T05:37:37.746Z,96332.81
2023-03-26T05:40:11.670Z,96324.25
2023-03-26T05:42:39.915Z,96328.44
2023-03-26T05:45:08.983Z,96334.06
2023-03-26T05:47:36.818Z,96324.63
2023-03-26T05:50:07.504Z,96316.13
2023-03-26T05:52:35.355Z,96326.34
2023-03-26T05:55:03.264Z,96321.53
2023-03-26T05:57:31.423Z,96311.63
2023-03-26T05:59:59.363Z,96311.44
2023-03-26T06:02:27.208Z,96315.06
2023-03-26T06:04:56.826Z,96314.97
2023-03-26T06:07:27.130Z,96312.47
2023-03-26T06:09:54.971Z,96303.78
2023-03-26T06:12:22.776Z,96301.00
2023-03-26T06:14:50.698Z,96296.72
2023-03-26T06:17:18.557Z,96305.38
2023-03-26T06:19:47.906Z,96307.25
2023-03-26T06:22:15.771Z,96296.19
2023-03-26T06:24:44.894Z,96286.75
2023-03-26T06:27:12.694Z,96286.66
2023-03-26T06:29:40.475Z,96277.78
2023-03-26T06:32:19.111Z,96272.28
2023-03-26T06:34:48.091Z,96277.28
2023-03-26T06:37:15.900Z,96266.66
2023-03-26T06:39:45.006Z,96270.72
2023-03-26T06:42:12.914Z,96264.50
2023-03-26T06:44:40.756Z,96260.00
2023-03-26T06:47:08.601Z,96258.94
2023-03-26T06:49:38.219Z,96262.41
2023-03-26T06:52:06.269Z,96257.19
2023-03-26T06:54:34.071Z,96246.81
2023-03-26T06:57:03.418Z,96240.75
2023-03-26T06:59:31.525Z,96240.50
2023-03-26T07:01:59.289Z,96244.78
2023-03-26T07:04:27.133Z,96237.56
2023-03-26T07:06:54.997Z,96236.31
2023-03-26T07:09:22.923Z,96225.56
2023-03-26T07:11:50.802Z,96215.81
2023-03-26T07:14:20.008Z,96214.78
2023-03-26T07:16:47.780Z,96212.28
2023-03-26T07:19:15.613Z,96195.16
2023-03-26T07:21:43.976Z,96199.53
2023-03-26T07:24:13.759Z,96200.25
2023-03-26T07:26:49.308Z,96194.75
2023-03-26T07:29:22.101Z,96181.88
2023-03-26T07:31:54.397Z,96180.09
2023-03-26T07:34:32.670Z,96185.34
2023-03-26T07:37:04.624Z,96178.66
2023-03-26T07:39:42.146Z,96176.03
2023-03-26T07:42:19.480Z,96177.19
2023-03-26T07:44:52.910Z,96172.38
2023-03-26T07:47:26.220Z,96165.69
2023-03-26T07:49:57.877Z,96169.56
2023-03-26T07:52:27.059Z,96153.78
2023-03-26T07:54:55.595Z,96157.13
2023-03-26T07:57:33.830Z,96162.97
2023-03-26T08:00:11.763Z,96153.88
2023-03-26T08:02:53.680Z,96157.44
2023-03-26T08:05:26.330Z,96149.50
2023-03-26T08:08:01.074Z,96141.78
2023-03-26T08:10:34.781Z,96151.09
2023-03-26T08:13:11.772Z,96146.91
2023-03-26T08:15:45.486Z,96138.31
2023-03-26T08:18:27.310Z,96140.31
2023-03-26T08:20:58.487Z,96143.13
2023-03-26T08:23:30.838Z,96145.41
2023-03-26T08:26:02.657Z,96139.75
2023-03-26T08:28:52.706Z,96138.72
2023-03-26T08:31:28.663Z,96116.78
2023-03-26T08:33:56.563Z,96114.91
2023-03-26T08:36:24.530Z,96133.50
2023-03-26T08:38:52.567Z,96127.13
2023-03-26T08:42:05.805Z,96118.44
2023-03-26T08:45:08.736Z,96108.84
2023-03-26T08:48:13.214Z,96103.09
2023-03-26T08:51:10.589Z,96102.88
2023-03-26T08:53:54.090Z,96120.03
2023-03-26T08:56:26.317Z,96114.47
2023-03-26T08:59:15.953Z,96128.88
2023-03-26T09:02:12.853Z,96128.25
2023-03-26T09:05:35.023Z,96120.53
2023-03-26T09:08:54.812Z,96119.47
2023-03-26T09:11:40.838Z,96111.75
2023-03-26T09:14:39.898Z,96104.97
2023-03-26T09:17:19.417Z,96095.88
2023-03-26T09:20:09.804Z,96096.53
2023-03-26T09:22:54.587Z,96087.97
2023-03-26T09:25:42.971Z,96091.94
2023-03-26T09:28:51.209Z,96090.66
2023-03-26T09:31:49.278Z,96089.88
2023-03-26T09:34:29.921Z,96094.03
2023-03-26T09:37:12.241Z,96089.03
2023-03-26T09:39:48.018Z,96078.25
2023-03-26T09:42:19.279Z,96074.91
2023-03-26T09:45:25.326Z,96079.59
2023-03-26T09:48:12.212Z,96084.28
2023-03-26T09:50:58.690Z,96079.16
2023-03-26T09:53:50.591Z,96072.88
2023-03-26T09:56:32.306Z,96054.41
2023-03-26T09:59:20.154Z,96062.75
2023-03-26T10:01:55.716Z,96050.19
2023-03-26T10:05:02.206Z,96056.75
2023-03-26T10:07:55.921Z,96055.09
2023-03-26T10:10:30.459Z,96055.00
2023-03-26T10:13:13.581Z,96046.13
2023-03-26T10:15:57.265Z,96054.66
2023-03-26T10:18:32.338Z,96041.88
2023-03-26T10:21:03.650Z,96001.03
2023-03-26T10:23:47.856Z,96031.53
2023-03-26T10:26:32.641Z,96032.69
2023-03-26T10:29:27.816Z,96031.53
2023-03-26T10:32:00.036Z,96032.97
2023-03-26T10:34:40.241Z,96026.31
2023-03-26T10:37:10.730Z,96032.09
2023-03-26T10:39:55.894Z,96031.22
2023-03-26T10:42:41.810Z,96012.34
2023-03-26T10:45:38.119Z,96010.34
2023-03-26T10:48:35.436Z,96014.13
2023-03-26T10:51:36.369Z,96016.84
2023-03-26T10:54:07.920Z,96030.44
2023-03-26T10:56:37.195Z,96021.25
2023-03-26T10:59:08.736Z,96018.16
2023-03-26T11:01:42.809Z,96007.94
2023-03-26T11:04:21.840Z,96013.06
2023-03-26T11:06:55.784Z,96009.38
2023-03-26T11:09:31.331Z,96015.34
2023-03-26T11:12:03.554Z,96011.50
2023-03-26T11:14:58.880Z,96005.56
2023-03-26T11:17:40.198Z,95995.56
2023-03-26T11:20:12.091Z,95981.72
2023-03-26T11:22:47.410Z,95987.69
2023-03-26T11:25:39.041Z,95998.91
2023-03-26T11:28:17.796Z,95990.31
2023-03-26T11:30:50.160Z,95993.94
2023-03-26T11:33:21.378Z,95990.56
2023-03-26T11:35:51.078Z,95983.88
2023-03-26T11:38:24.134Z,95980.56
2023-03-26T11:40:55.387Z,95974.44
2023-03-26T11:43:25.986Z,95973.38
2023-03-26T11:46:08.169Z,95973.91
2023-03-26T11:48:40.727Z,95963.47
2023-03-26T11:51:11.637Z,95970.25
2023-03-26T11:53:40.767Z,95965.69
2023-03-26T11:56:14.975Z,95966.88
2023-03-26T11:58:46.806Z,95956.56
2023-03-26T12:01:18.791Z,95934.09
2023-03-26T12:03:58.613Z,95956.84
2023-03-26T12:06:29.004Z,95961.81
2023-03-26T12:08:58.053Z,95946.31
2023-03-26T12:11:28.282Z,95942.84
2023-03-26T12:13:59.666Z,95944.34
2023-03-26T12:16:29.575Z,95942.59
2023-03-26T12:19:02.810Z,95941.88
2023-03-26T12:21:31.025Z,95958.72
2023-03-26T12:24:00.462Z,95953.75
2023-03-26T12:26:36.267Z,95957.84
2023-03-26T12:29:10.413Z,95967.25
2023-03-26T12:31:54.887Z,95941.44
2023-03-26T12:34:24.101Z,95945.72
2023-03-26T12:36:56.596Z,95943.81
2023-03-26T12:40:06.775Z,95939.22
2023-03-26T12:44:49.265Z,95937.91
2023-03-26T12:45:17.969Z,95939.50
2023-03-26T12:48:01.350Z,95933.53
2023-03-26T12:50:40.690Z,95923.75
2023-03-26T12:53:29.149Z,95921.91
2023-03-26T12:56:01.549Z,95913.47
2023-03-26T12:58:47.948Z,95927.56
2023-03-26T13:01:20.651Z,95906.63
2023-03-26T13:04:04.848Z,95923.78
2023-03-26T13:07:01.048Z,95917.72
2023-03-26T13:09:37.617Z,95902.88
2023-03-26T13:12:10.960Z,95909.66
2023-03-26T13:14:49.450Z,95898.44
2023-03-26T13:17:23.786Z,95908.72
2023-03-26T13:19:59.671Z,95909.25
2023-03-26T13:22:31.800Z,95930.22
2023-03-26T13:25:06.855Z,95893.34
2023-03-26T13:27:50.763Z,95913.31
2023-03-26T13:30:28.071Z,95909.97
2023-03-26T13:33:08.427Z,95904.38
2023-03-26T13:35:42.199Z,95906.56
2023-03-26T13:38:14.439Z,95909.91
2023-03-26T13:40:48.736Z,95897.50
2023-03-26T13:43:27.589Z,95889.50
2023-03-26T13:45:58.700Z,95911.69
2023-03-26T13:48:29.821Z,95882.97
2023-03-26T13:51:05.254Z,95876.13
2023-03-26T13:53:38.610Z,95894.88
2023-03-26T13:56:09.484Z,95902.72
2023-03-26T13:58:40.524Z,95904.31
2023-03-26T14:01:10.105Z,95892.56
2023-03-26T14:03:45.930Z,95886.88
2023-03-26T14:06:24.793Z,95883.09
2023-03-26T14:08:56.263Z,95882.91
2023-03-26T14:11:39.296Z,95875.53
2023-03-26T14:14:09.053Z,95878.53
2023-03-26T14:16:39.420Z,95888.06
2023-03-26T14:19:28.912Z,95882.28
2023-03-26T14:22:04.394Z,95883.06
2023-03-26T14:24:55.505Z,95870.50
2023-03-26T14:27:38.755Z,95878.28
2023-03-26T14:30:43.231Z,95882.16
2023-03-26T14:33:28.132Z,95884.53
2023-03-26T14:36:01.449Z,95878.84
2023-03-26T14:38:54.304Z,95884.25
2023-03-26T14:41:25.366Z,95885.63
2023-03-26T14:44:28.638Z,95872.47
2023-03-26T14:47:04.680Z,95875.50
2023-03-26T14:50:10.981Z,95873.72
2023-03-26T14:52:46.131Z,95880.38
2023-03-26T14:55:18.345Z,95853.34
2023-03-26T14:58:03.769Z,95891.56
2023-03-26T15:01:03.919Z,95883.91
2023-03-26T15:04:10.791Z,95902.75
2023-03-26T15:07:25.873Z,95878.22
2023-03-26T15:10:32.286Z,95894.91
2023-03-26T15:13:11.880Z,95883.25
2023-03-26T15:16:04.566Z,95907.44
2023-03-26T15:19:27.278Z,95915.25
2023-03-26T15:22:29.198Z,95965.19
2023-03-26T15:25:22.510Z,95959.38
2023-03-26T15:28:46.853Z,95956.84
2023-03-26T15:31:36.933Z,95958.84
2023-03-26T15:34:30.428Z,95954.06
2023-03-26T15:37:28.880Z,95942.13
2023-03-26T15:40:26.520Z,95930.47
2023-03-26T15:43:01.477Z,95920.47
2023-03-26T15:45:37.820Z,95920.00
2023-03-26T15:48:39.197Z,95921.16
2023-03-26T15:51:24.394Z,95918.34
2023-03-26T15:53:56.465Z,95925.81
2023-03-26T15:56:32.932Z,95921.63
2023-03-26T15:59:06.914Z,95929.50
2023-03-26T16:01:47.154Z,95941.47
2023-03-26T16:04:25.044Z,95943.25
2023-03-26T16:07:02.954Z,95945.78
2023-03-26T16:09:49.561Z,95954.91
2023-03-26T16:12:30.836Z,95968.16
2023-03-26T16:15:26.847Z,95964.84
2023-03-26T16:18:22.720Z,95968.44
2023-03-26T16:20:54.693Z,95969.97
2023-03-26T16:23:31.429Z,95967.59
2023-03-26T16:26:15.961Z,95975.31
2023-03-26T16:29:18.141Z,95969.84
2023-03-26T16:32:12.437Z,95972.09
2023-03-26T16:34:46.722Z,95964.59
2023-03-26T16:37:40.872Z,95975.53
2023-03-26T16:40:33.931Z,95972.19
2023-03-26T16:43:11.321Z,95975.38
2023-03-26T16:45:43.676Z,95976.94
2023-03-26T16:48:23.372Z,95969.78
2023-03-26T16:50:54.622Z,95975.28
2023-03-26T16:53:34.442Z,95984.81
2023-03-26T16:56:08.836Z,95992.53
2023-03-26T16:58:44.030Z,95984.06
2023-03-26T17:01:17.326Z,95988.38
2023-03-26T17:03:52.021Z,95986.91
2023-03-26T17:06:30.640Z,96000.97
2023-03-26T17:09:10.675Z,95995.13
2023-03-26T17:11:48.116Z,95999.53
2023-03-26T17:14:26.771Z,96002.38
2023-03-26T17:17:10.109Z,95998.41
2023-03-26T17:19:45.272Z,96006.50
2023-03-26T17:22:17.549Z,96006.72
2023-03-26T17:24:48.952Z,96008.41
2023-03-26T17:27:27.037Z,96015.75
2023-03-26T17:30:05.101Z,96013.72
2023-03-26T17:32:55.489Z,96022.59
2023-03-26T17:35:38.141Z,96021.22
2023-03-26T17:38:32.941Z,96022.63
2023-03-26T17:41:01.240Z,96020.47
2023-03-26T17:43:44.109Z,96019.94
2023-03-26T17:46:28.718Z,96023.38
2023-03-26T17:49:01.035Z,96030.72
2023-03-26T17:51:40.315Z,96025.09
2023-03-26T17:54:10.204Z,96021.06
2023-03-26T17:56:38.843Z,96032.03
2023-03-26T17:59:11.552Z,96024.53
2023-03-26T18:01:41.366Z,96035.72
2023-03-26T18:04:12.846Z,96025.47
2023-03-26T18:06:51.633Z,96030.06
2023-03-26T18:09:31.546Z,96028.41
2023-03-26T18:12:17.549Z,96030.06
2023-03-26T18:15:25.641Z,96032.59
2023-03-26T18:17:58.257Z,96029.84
2023-03-26T18:20:28.226Z,96028.50
2023-03-26T18:22:57.503Z,96042.19
2023-03-26T18:25:27.863Z,96037.19
2023-03-26T18:27:57.342Z,96041.47
2023-03-26T18:30:27.016Z,96049.31
2023-03-26T18:33:08.051Z,96049.50
2023-03-26T18:35:41.640Z,96041.78
2023-03-26T18:38:14.787Z,96054.22
2023-03-26T18:40:43.090Z,96055.16
2023-03-26T18:43:28.613Z,96055.38
2023-03-26T18:46:04.795Z,96063.22
2023-03-26T18:48:32.810Z,96064.16
2023-03-26T18:51:05.093Z,96067.72
2023-03-26T18:53:38.248Z,96066.03
2023-03-26T18:56:20.375Z,96068.63
2023-03-26T18:58:53.056Z,96073.66
2023-03-26T19:01:25.958Z,96057.03
2023-03-26T19:03:54.714Z,96061.53
2023-03-26T19:06:23.337Z,96071.06
2023-03-26T19:08:52.386Z,96071.06
2023-03-26T19:11:20.243Z,96068.44
2023-03-26T19:13:52.046Z,96076.06
2023-03-26T19:16:24.309Z,96079.31
2023-03-26T19:18:52.460Z,96077.97
2023-03-26T19:21:23.238Z,96073.75
2023-03-26T19:23:52.692Z,96076.38
2023-03-26T19:26:20.662Z,96080.66
2023-03-26T19:28:51.466Z,96082.88
2023-03-26T19:31:25.859Z,96079.31
2023-03-26T19:33:59.037Z,96085.25
2023-03-26T19:36:29.707Z,96087.16
2023-03-26T19:39:10.757Z,96094.00
2023-03-26T19:44:39.824Z,96101.56
2023-03-26T19:47:16.876Z,96061.25
2023-03-26T19:49:51.553Z,96100.31
2023-03-26T19:52:22.854Z,96102.09
2023-03-26T19:54:59.600Z,96097.78
2023-03-26T19:57:29.354Z,96101.75
2023-03-26T19:59:57.552Z,96104.06
2023-03-26T20:02:27.081Z,96106.69
2023-03-26T20:04:55.017Z,96112.72
2023-03-26T20:07:35.317Z,96113.78
2023-03-26T20:10:05.714Z,96103.53
2023-03-26T20:12:33.772Z,96111.38
2023-03-26T20:15:02.151Z,96107.31
2023-03-26T20:17:34.796Z,96123.72
2023-03-26T20:20:05.763Z,96120.56
2023-03-26T20:22:33.621Z,96127.69
2023-03-26T20:25:03.155Z,96127.69
2023-03-26T20:27:31.116Z,96129.03
2023-03-26T20:29:58.890Z,96134.03
2023-03-26T20:32:27.418Z,96138.72
2023-03-26T20:34:57.730Z,96150.00
2023-03-26T20:37:25.710Z,96151.88
2023-03-26T20:39:53.472Z,96164.84
2023-03-26T20:42:21.446Z,96172.84
2023-03-26T20:44:49.341Z,96166.28
2023-03-26T20:47:17.253Z,96168.97
2023-03-26T20:49:45.026Z,96178.59
2023-03-26T20:52:15.449Z,96192.47
2023-03-26T20:54:43.626Z,96191.75
2023-03-26T20:57:13.442Z,96191.94
2023-03-26T20:59:42.040Z,96197.38
2023-03-26T21:02:12.030Z,96203.63
2023-03-26T21:04:39.960Z,96206.34
2023-03-26T21:07:17.815Z,96207.66
2023-03-26T21:09:48.730Z,96196.88
2023-03-26T21:12:21.558Z,96214.22
2023-03-26T21:14:49.914Z,96218.91
2023-03-26T21:17:19.715Z,96223.38
2023-03-26T21:19:48.324Z,96215.41
2023-03-26T21:22:26.292Z,96239.03
2023-03-26T21:25:06.519Z,96234.88
2023-03-26T21:27:40.276Z,96243.50
2023-03-26T21:30:13.791Z,96255.81
2023-03-26T21:32:42.652Z,96262.34
2023-03-26T21:35:13.361Z,96258.81
2023-03-26T21:37:42.772Z,96271.13
2023-03-26T21:40:16.318Z,96263.59
2023-03-26T21:42:45.090Z,96267.31
2023-03-26T21:45:13.950Z,96271.59
2023-03-26T21:47:42.498Z,96289.94
2023-03-26T21:50:12.563Z,96295.25
2023-03-26T21:52:47.095Z,96303.19
2023-03-26T21:55:18.260Z,96298.44
2023-03-26T21:57:59.574Z,96305.41
2023-03-26T22:00:41.086Z,96317.91
2023-03-26T22:03:16.566Z,96319.75
2023-03-26T22:05:49.104Z,96331.19
2023-03-26T22:08:23.318Z,96345.84
2023-03-26T22:10:52.479Z,96346.84
2023-03-26T22:13:20.594Z,96357.38
2023-03-26T22:15:49.315Z,96358.69
2023-03-26T22:18:21.208Z,96370.03
2023-03-26T22:20:49.583Z,96367.97
2023-03-26T22:23:18.344Z,96378.56
2023-03-26T22:25:46.211Z,96389.47
2023-03-26T22:28:15.568Z,96388.22
2023-03-26T22:30:43.664Z,96371.63
2023-03-26T22:33:12.271Z,96401.72
2023-03-26T22:35:42.149Z,96399.31
2023-03-26T22:38:11.847Z,96407.44
2023-03-26T22:40:39.983Z,96418.56
2023-03-26T22:43:07.962Z,96416.38
2023-03-26T22:45:38.311Z,96419.00
2023-03-26T22:48:06.234Z,96441.91
2023-03-26T22:50:35.003Z,96431.53
2023-03-26T22:53:03.059Z,96435.28
2023-03-26T22:55:30.843Z,96445.69
2023-03-26T22:57:59.232Z,96454.41
2023-03-26T23:00:27.560Z,96453.41
2023-03-26T23:03:00.235Z,96453.34
2023-03-26T23:05:29.448Z,96457.72
2023-03-26T23:07:57.437Z,96456.09
2023-03-26T23:10:25.214Z,96453.50
2023-03-26T23:12:53.834Z,96455.44
2023-03-26T23:15:22.293Z,96458.31
2023-03-26T23:17:54.231Z,96454.94
2023-03-26T23:20:24.477Z,96457.09
2023-03-26T23:22:52.788Z,96472.31
2023-03-26T23:25:20.995Z,96480.19
2023-03-26T23:27:50.620Z,96489.75
2023-03-26T23:30:19.275Z,96492.34
2023-03-26T23:32:47.360Z,96497.63
2023-03-26T23:35:15.653Z,96496.63
2023-03-26T23:37:44.822Z,96513.34
2023-03-26T23:40:14.313Z,96529.16
2023-03-26T23:42:42.611Z,96527.66
2023-03-26T23:45:12.454Z,96530.50
2023-03-26T23:47:42.672Z,96535.47
2023-03-26T23:50:11.655Z,96558.81
2023-03-26T23:52:39.498Z,96561.66
2023-03-26T23:55:09.821Z,96566.16
2023-03-26T23:57:37.938Z,96562.81
